Time;durP1;ratioP1;P1;durP2;ratioP2;P2;SDS_P1;SDS_P2;PMS_P1;PMS_P2;Temp;Humidity;BMP_temperature;BMP_pressure;BME280_temperature;BME280_humidity;BME280_pressure;Samples;Min_cycle;Max_cycle;Signal;HPM_P1;HPM_P2
2022/11/27 00:02:15;;;;;;;25.77;8.70;;;;;;;;;;5059496;28;20415;-81
2022/11/27 00:04:41;;;;;;;25.10;7.83;;;;;;;;;;5048704;28;20471;-81
2022/11/27 00:07:07;;;;;;;28.77;8.10;;;;;;;;;;5038375;28;20439;-80
2022/11/27 00:09:33;;;;;;;19.85;7.97;;;;;;;;;;5036199;28;20575;-82
2022/11/27 00:11:59;;;;;;;24.23;8.40;;;;;;;;;;5035325;28;20764;-82
2022/11/27 00:14:25;;;;;;;28.48;8.27;;;;;;;;;;5058562;28;20998;-81
2022/11/27 00:16:51;;;;;;;24.17;8.55;;;;;;;;;;5057281;28;20427;-82
2022/11/27 00:19:17;;;;;;;24.20;8.60;;;;;;;;;;5058162;28;20419;-81
2022/11/27 00:21:43;;;;;;;23.75;8.20;;;;;;;;;;5013745;28;20401;-81
2022/11/27 00:24:10;;;;;;;28.23;8.77;;;;;;;;;;5021683;28;20510;-81
2022/11/27 00:26:36;;;;;;;24.15;8.02;;;;;;;;;;5037093;28;20423;-82
2022/11/27 00:29:02;;;;;;;28.00;8.07;;;;;;;;;;5057085;28;20431;-82
2022/11/27 00:31:30;;;;;;;27.33;8.30;;;;;;;;;;5051732;28;20536;-81
2022/11/27 00:33:56;;;;;;;22.63;8.60;;;;;;;;;;5056962;28;20414;-80
2022/11/27 00:36:23;;;;;;;25.73;8.45;;;;;;;;;;5056306;28;20779;-81
2022/11/27 00:38:49;;;;;;;23.80;7.90;;;;;;;;;;5054462;28;21128;-82
2022/11/27 00:41:19;;;;;;;24.23;8.25;;;;;;;;;;5051882;28;20432;-81
2022/11/27 00:43:46;;;;;;;22.98;8.23;;;;;;;;;;5057331;28;20469;-81
2022/11/27 00:46:13;;;;;;;19.30;8.07;;;;;;;;;;5049360;28;20432;-81
2022/11/27 00:48:39;;;;;;;24.27;8.57;;;;;;;;;;5054669;28;20415;-81
2022/11/27 00:51:06;;;;;;;21.80;8.45;;;;;;;;;;5045951;28;20934;-81
2022/11/27 00:53:32;;;;;;;22.23;8.05;;;;;;;;;;5039797;28;20488;-82
2022/11/27 00:55:58;;;;;;;21.58;8.48;;;;;;;;;;5036530;28;20417;-82
2022/11/27 00:58:25;;;;;;;20.60;8.32;;;;;;;;;;5020293;28;20463;-82
2022/11/27 01:00:59;;;;;;;23.23;8.48;;;;;;;;;;5042796;28;20415;-81
2022/11/27 01:03:25;;;;;;;20.52;8.00;;;;;;;;;;5046483;28;20516;-81
2022/11/27 01:05:52;;;;;;;19.80;8.43;;;;;;;;;;5036620;28;20401;-82
2022/11/27 01:08:18;;;;;;;21.95;7.93;;;;;;;;;;5042115;28;20427;-81
2022/11/27 01:10:55;;;;;;;20.13;8.07;;;;;;;;;;5055223;28;20871;-82
2022/11/27 01:13:28;;;;;;;21.23;7.88;;;;;;;;;;5036689;28;20417;-81
2022/11/27 01:16:05;;;;;;;19.83;7.53;;;;;;;;;;5042110;28;20415;-81
2022/11/27 01:18:32;;;;;;;21.23;7.93;;;;;;;;;;5055808;28;20463;-82
2022/11/27 01:20:59;;;;;;;21.40;8.40;;;;;;;;;;5055260;28;20427;-82
2022/11/27 01:23:25;;;;;;;22.33;8.02;;;;;;;;;;5053080;28;20429;-81
2022/11/27 01:25:52;;;;;;;24.80;8.02;;;;;;;;;;5033557;28;20936;-82
2022/11/27 01:28:19;;;;;;;21.92;8.10;;;;;;;;;;5012601;28;20425;-82
2022/11/27 01:30:45;;;;;;;23.43;8.00;;;;;;;;;;5059222;28;20460;-82
2022/11/27 01:33:11;;;;;;;24.17;7.72;;;;;;;;;;5070100;28;20403;-81
2022/11/27 01:35:37;;;;;;;21.60;7.60;;;;;;;;;;5056327;28;20479;-83
2022/11/27 01:38:03;;;;;;;21.27;8.05;;;;;;;;;;5055015;28;20416;-82
2022/11/27 01:40:29;;;;;;;18.98;8.00;;;;;;;;;;5055996;28;20443;-82
2022/11/27 01:42:55;;;;;;;21.07;8.10;;;;;;;;;;5076254;28;20541;-82
2022/11/27 01:45:22;;;;;;;18.55;8.07;;;;;;;;;;5048408;28;20443;-82
2022/11/27 01:47:52;;;;;;;20.02;7.60;;;;;;;;;;5054607;28;20416;-82
2022/11/27 01:50:21;;;;;;;20.67;9.07;;;;;;;;;;5046741;28;20421;-82
2022/11/27 01:52:49;;;;;;;19.67;8.13;;;;;;;;;;5024717;28;20869;-81
2022/11/27 01:55:21;;;;;;;19.20;8.43;;;;;;;;;;5039340;28;20452;-82
2022/11/27 01:58:01;;;;;;;18.65;7.70;;;;;;;;;;5038546;28;20450;-82
2022/11/27 02:00:28;;;;;;;16.17;7.43;;;;;;;;;;5047774;28;20514;-82
2022/11/27 02:02:54;;;;;;;15.93;7.53;;;;;;;;;;5055137;28;20449;-82
2022/11/27 02:05:24;;;;;;;20.55;7.07;;;;;;;;;;5053776;28;20430;-81
2022/11/27 02:07:51;;;;;;;21.05;7.45;;;;;;;;;;5036639;28;20484;-82
2022/11/27 02:10:18;;;;;;;17.80;7.50;;;;;;;;;;5051198;28;20416;-82
2022/11/27 02:12:53;;;;;;;19.15;7.30;;;;;;;;;;5044010;28;20401;-81
2022/11/27 02:15:23;;;;;;;16.23;6.75;;;;;;;;;;5035675;28;20405;-82
2022/11/27 02:18:07;;;;;;;19.30;6.65;;;;;;;;;;5040641;28;20477;-81
2022/11/27 02:20:44;;;;;;;17.30;6.97;;;;;;;;;;5047564;28;20425;-81
2022/11/27 02:23:10;;;;;;;23.08;7.55;;;;;;;;;;5048765;28;20432;-81
2022/11/27 02:25:43;;;;;;;18.55;6.95;;;;;;;;;;5054436;28;20485;-81
2022/11/27 02:28:21;;;;;;;18.08;7.50;;;;;;;;;;5053859;28;20752;-82
2022/11/27 02:30:50;;;;;;;16.05;6.75;;;;;;;;;;5054926;28;20431;-81
2022/11/27 02:33:19;;;;;;;19.90;8.38;;;;;;;;;;5035507;28;20451;-81
2022/11/27 02:35:51;;;;;;;18.17;9.02;;;;;;;;;;5034420;28;20907;-81
2022/11/27 02:38:27;;;;;;;21.92;7.82;;;;;;;;;;5040046;28;20420;-82
2022/11/27 02:40:53;;;;;;;19.13;7.30;;;;;;;;;;5053879;28;20484;-81
2022/11/27 02:43:26;;;;;;;17.92;7.68;;;;;;;;;;5021344;28;20473;-81
2022/11/27 02:45:52;;;;;;;18.23;7.75;;;;;;;;;;5054336;28;20438;-81
2022/11/27 02:48:20;;;;;;;17.92;8.20;;;;;;;;;;5052037;28;20419;-82
2022/11/27 02:50:47;;;;;;;18.48;7.97;;;;;;;;;;5053515;28;20416;-81
2022/11/27 02:53:22;;;;;;;21.25;9.18;;;;;;;;;;5053542;28;20420;-81
2022/11/27 02:55:49;;;;;;;22.13;8.65;;;;;;;;;;5037417;28;20399;-79
2022/11/27 02:58:17;;;;;;;18.30;8.03;;;;;;;;;;5054367;28;20406;-81
2022/11/27 03:00:44;;;;;;;20.27;8.15;;;;;;;;;;5049113;28;20419;-81
2022/11/27 03:03:11;;;;;;;21.42;9.13;;;;;;;;;;5036633;28;20846;-82
2022/11/27 03:05:39;;;;;;;18.23;8.10;;;;;;;;;;5037182;28;20455;-80
2022/11/27 03:08:07;;;;;;;22.67;8.30;;;;;;;;;;5037706;28;20446;-81
2022/11/27 03:10:33;;;;;;;21.63;9.07;;;;;;;;;;5042051;28;20816;-81
2022/11/27 03:13:00;;;;;;;19.80;8.10;;;;;;;;;;5051393;28;20431;-81
2022/11/27 03:15:26;;;;;;;19.02;7.70;;;;;;;;;;5053054;28;20476;-80
2022/11/27 03:17:58;;;;;;;19.17;8.68;;;;;;;;;;5050156;28;20419;-81
2022/11/27 03:20:35;;;;;;;20.42;8.38;;;;;;;;;;5050993;28;20923;-82
2022/11/27 03:23:01;;;;;;;19.65;8.00;;;;;;;;;;5053646;28;20561;-81
2022/11/27 03:25:28;;;;;;;18.08;8.13;;;;;;;;;;5034885;28;20781;-82
2022/11/27 03:27:59;;;;;;;19.00;8.35;;;;;;;;;;5048235;28;20424;-80
2022/11/27 03:30:25;;;;;;;21.20;8.40;;;;;;;;;;5056863;28;20903;-82
2022/11/27 03:32:51;;;;;;;23.90;8.97;;;;;;;;;;5058742;28;20934;-82
2022/11/27 03:35:19;;;;;;;17.40;8.27;;;;;;;;;;5058265;28;20426;-81
2022/11/27 03:37:45;;;;;;;19.00;8.00;;;;;;;;;;5058607;28;20404;-81
2022/11/27 03:40:11;;;;;;;17.48;7.60;;;;;;;;;;5058187;28;20510;-81
2022/11/27 03:42:44;;;;;;;21.13;8.37;;;;;;;;;;5044114;28;20419;-81
2022/11/27 03:45:16;;;;;;;19.52;7.97;;;;;;;;;;5047132;28;20513;-80
2022/11/27 03:47:42;;;;;;;22.52;7.80;;;;;;;;;;5025389;28;20437;-80
2022/11/27 03:50:08;;;;;;;18.30;7.45;;;;;;;;;;5058420;28;20977;-80
2022/11/27 03:53:03;;;;;;;18.40;7.93;;;;;;;;;;5062345;28;20422;-79
2022/11/27 03:55:42;;;;;;;16.60;7.38;;;;;;;;;;5068280;28;20411;-82
2022/11/27 03:58:25;;;;;;;18.00;7.40;;;;;;;;;;5058436;28;20422;-80
2022/11/27 04:00:52;;;;;;;14.98;6.85;;;;;;;;;;5054285;28;20618;-81
2022/11/27 04:03:26;;;;;;;15.25;7.05;;;;;;;;;;5042296;28;20972;-81
2022/11/27 04:05:52;;;;;;;18.80;8.25;;;;;;;;;;5057403;28;20435;-82
2022/11/27 04:08:19;;;;;;;19.17;7.83;;;;;;;;;;5064442;28;20517;-81
2022/11/27 04:10:45;;;;;;;13.45;6.68;;;;;;;;;;5040074;28;20492;-82
2022/11/27 04:13:11;;;;;;;15.27;6.97;;;;;;;;;;5056281;28;20763;-80
2022/11/27 04:15:37;;;;;;;15.18;6.65;;;;;;;;;;5057254;28;20415;-81
2022/11/27 04:18:03;;;;;;;18.23;7.00;;;;;;;;;;5057200;28;20423;-82
2022/11/27 04:20:29;;;;;;;15.65;6.78;;;;;;;;;;5057296;28;20400;-81
2022/11/27 04:22:55;;;;;;;15.98;7.22;;;;;;;;;;5056701;28;20426;-81
2022/11/27 04:25:22;;;;;;;14.83;6.17;;;;;;;;;;5038119;28;20479;-81
2022/11/27 04:27:48;;;;;;;18.17;6.47;;;;;;;;;;5053663;28;20818;-80
2022/11/27 04:30:15;;;;;;;14.45;6.78;;;;;;;;;;5035866;28;20428;-81
2022/11/27 04:32:41;;;;;;;13.43;6.38;;;;;;;;;;5057008;28;20419;-80
2022/11/27 04:35:07;;;;;;;13.90;6.50;;;;;;;;;;5029633;28;20419;-81
2022/11/27 04:37:33;;;;;;;17.15;5.85;;;;;;;;;;5037791;28;20405;-81
2022/11/27 04:39:59;;;;;;;14.43;6.90;;;;;;;;;;5034399;28;20404;-81
2022/11/27 04:42:25;;;;;;;15.10;6.40;;;;;;;;;;5018177;28;20947;-81
2022/11/27 04:44:51;;;;;;;14.85;6.47;;;;;;;;;;5054088;28;20843;-81
2022/11/27 04:47:17;;;;;;;15.35;6.03;;;;;;;;;;5054318;28;20906;-81
2022/11/27 04:49:43;;;;;;;14.00;6.00;;;;;;;;;;5052707;28;20424;-73
2022/11/27 04:52:12;;;;;;;16.35;6.32;;;;;;;;;;5056100;28;20411;-73
2022/11/27 04:54:38;;;;;;;16.27;6.15;;;;;;;;;;5038530;28;20923;-72
2022/11/27 04:57:04;;;;;;;14.63;6.53;;;;;;;;;;5037714;28;20447;-73
2022/11/27 04:59:31;;;;;;;15.05;5.78;;;;;;;;;;5055521;28;20758;-73
2022/11/27 05:01:57;;;;;;;16.90;5.77;;;;;;;;;;5033751;28;20413;-73
2022/11/27 05:04:23;;;;;;;14.27;5.60;;;;;;;;;;5055001;28;20416;-73
2022/11/27 05:06:49;;;;;;;15.00;5.90;;;;;;;;;;5054938;28;20431;-73
2022/11/27 05:09:18;;;;;;;13.32;5.47;;;;;;;;;;5022300;28;20450;-73
2022/11/27 05:11:45;;;;;;;16.13;5.87;;;;;;;;;;5026996;28;20527;-73
2022/11/27 05:14:14;;;;;;;14.65;5.47;;;;;;;;;;5055107;28;20424;-73
2022/11/27 05:16:40;;;;;;;16.05;5.68;;;;;;;;;;5035620;28;20419;-73
2022/11/27 05:19:08;;;;;;;14.90;5.93;;;;;;;;;;5051418;28;20428;-73
2022/11/27 05:21:34;;;;;;;15.20;5.60;;;;;;;;;;5054644;28;20502;-73
2022/11/27 05:24:01;;;;;;;16.65;5.60;;;;;;;;;;5038010;28;20427;-73
2022/11/27 05:26:27;;;;;;;10.63;5.43;;;;;;;;;;5032566;28;20915;-72
2022/11/27 05:28:53;;;;;;;13.35;5.95;;;;;;;;;;5036399;28;20772;-72
2022/11/27 05:31:19;;;;;;;13.95;5.60;;;;;;;;;;5021054;28;20423;-72
2022/11/27 05:33:45;;;;;;;14.27;5.37;;;;;;;;;;5038865;28;20472;-73
2022/11/27 05:36:11;;;;;;;13.57;5.40;;;;;;;;;;5039102;28;20434;-73
2022/11/27 05:38:37;;;;;;;11.75;5.57;;;;;;;;;;5018295;28;20425;-73
2022/11/27 05:41:03;;;;;;;14.77;5.40;;;;;;;;;;5035675;28;20481;-73
2022/11/27 05:43:29;;;;;;;12.20;5.35;;;;;;;;;;5038539;28;20478;-73
2022/11/27 05:45:55;;;;;;;15.43;5.70;;;;;;;;;;5053899;28;20415;-73
2022/11/27 05:48:21;;;;;;;12.82;5.32;;;;;;;;;;5035547;28;20423;-73
2022/11/27 05:50:47;;;;;;;13.10;5.38;;;;;;;;;;5037971;28;20425;-72
2022/11/27 05:53:13;;;;;;;15.15;5.85;;;;;;;;;;5053684;28;20458;-73
2022/11/27 05:55:39;;;;;;;12.55;5.13;;;;;;;;;;5021150;28;20490;-72
2022/11/27 05:58:05;;;;;;;16.52;5.90;;;;;;;;;;5037757;28;20847;-72
2022/11/27 06:00:32;;;;;;;12.00;5.80;;;;;;;;;;5012902;28;20479;-73
2022/11/27 06:02:58;;;;;;;11.77;5.30;;;;;;;;;;5046592;28;20421;-73
2022/11/27 06:05:24;;;;;;;13.60;5.82;;;;;;;;;;5038018;28;20431;-73
2022/11/27 06:07:50;;;;;;;14.48;5.47;;;;;;;;;;5053761;28;20420;-73
2022/11/27 06:10:16;;;;;;;13.52;5.35;;;;;;;;;;5046886;28;20453;-73
2022/11/27 06:12:42;;;;;;;15.00;5.60;;;;;;;;;;5025995;28;20439;-73
2022/11/27 06:15:08;;;;;;;12.63;5.30;;;;;;;;;;5038678;28;20404;-72
2022/11/27 06:17:34;;;;;;;12.20;5.72;;;;;;;;;;5015982;28;20428;-73
2022/11/27 06:20:00;;;;;;;13.20;4.90;;;;;;;;;;5033349;28;20427;-73
2022/11/27 06:22:26;;;;;;;21.73;6.38;;;;;;;;;;5017965;28;20409;-73
2022/11/27 06:24:52;;;;;;;13.27;5.20;;;;;;;;;;5047920;28;20795;-74
2022/11/27 06:27:18;;;;;;;15.73;6.47;;;;;;;;;;5025232;28;20426;-73
2022/11/27 06:29:44;;;;;;;16.08;5.32;;;;;;;;;;5040880;28;20437;-73
2022/11/27 06:32:10;;;;;;;14.00;5.27;;;;;;;;;;5032370;28;20420;-74
2022/11/27 06:34:36;;;;;;;13.68;4.85;;;;;;;;;;5039200;28;20771;-73
2022/11/27 06:37:03;;;;;;;13.15;5.32;;;;;;;;;;5031836;28;20421;-74
2022/11/27 06:39:29;;;;;;;12.15;5.22;;;;;;;;;;5041776;28;20424;-74
2022/11/27 06:41:55;;;;;;;11.57;4.97;;;;;;;;;;5036309;28;20473;-74
2022/11/27 06:44:21;;;;;;;14.15;5.50;;;;;;;;;;5050089;28;20946;-74
2022/11/27 06:46:47;;;;;;;12.85;5.75;;;;;;;;;;5012545;28;20451;-74
2022/11/27 06:49:13;;;;;;;13.90;5.30;;;;;;;;;;5044652;28;20940;-73
2022/11/27 06:51:39;;;;;;;10.00;4.60;;;;;;;;;;5051599;28;20487;-73
2022/11/27 06:54:05;;;;;;;15.07;6.68;;;;;;;;;;5037210;28;20465;-73
2022/11/27 06:56:32;;;;;;;11.30;4.70;;;;;;;;;;5053782;28;20400;-72
2022/11/27 06:58:59;;;;;;;12.85;4.80;;;;;;;;;;5051028;28;20502;-74
2022/11/27 07:01:25;;;;;;;12.02;4.88;;;;;;;;;;5046036;28;20428;-74
2022/11/27 07:03:51;;;;;;;15.00;5.82;;;;;;;;;;5048789;28;20421;-74
2022/11/27 07:06:19;;;;;;;13.65;5.20;;;;;;;;;;5042106;28;20419;-74
2022/11/27 07:08:45;;;;;;;10.48;4.90;;;;;;;;;;5036267;28;20469;-74
2022/11/27 07:11:17;;;;;;;12.98;4.88;;;;;;;;;;5051749;28;20430;-74
2022/11/27 07:13:43;;;;;;;12.65;5.10;;;;;;;;;;5028922;28;20420;-74
2022/11/27 07:16:11;;;;;;;11.63;4.85;;;;;;;;;;5016178;28;20421;-75
2022/11/27 07:18:38;;;;;;;10.35;5.03;;;;;;;;;;5052783;28;20461;-73
2022/11/27 07:21:05;;;;;;;10.25;5.10;;;;;;;;;;5052801;28;20451;-74
2022/11/27 07:23:31;;;;;;;10.85;4.75;;;;;;;;;;5050870;28;20922;-74
2022/11/27 07:25:57;;;;;;;11.05;4.88;;;;;;;;;;5053488;28;20404;-73
2022/11/27 07:28:24;;;;;;;11.90;4.82;;;;;;;;;;5049965;28;20424;-74
2022/11/27 07:30:54;;;;;;;11.10;5.30;;;;;;;;;;5050329;28;20427;-72
2022/11/27 07:33:20;;;;;;;14.15;5.68;;;;;;;;;;5044459;28;20428;-72
2022/11/27 07:35:46;;;;;;;14.23;6.23;;;;;;;;;;5017085;28;20499;-73
2022/11/27 07:38:12;;;;;;;12.10;5.47;;;;;;;;;;5013378;28;20904;-73
2022/11/27 07:40:38;;;;;;;12.88;5.43;;;;;;;;;;5039692;28;20415;-73
2022/11/27 07:43:04;;;;;;;12.13;5.30;;;;;;;;;;5035970;28;20503;-73
2022/11/27 07:45:30;;;;;;;12.68;5.05;;;;;;;;;;5052345;28;20428;-73
2022/11/27 07:47:56;;;;;;;13.93;5.85;;;;;;;;;;5051949;28;20412;-73
2022/11/27 07:50:22;;;;;;;10.85;5.32;;;;;;;;;;5055658;28;20421;-72
2022/11/27 07:52:48;;;;;;;13.95;5.53;;;;;;;;;;5051786;28;20415;-73
2022/11/27 07:55:15;;;;;;;13.40;5.75;;;;;;;;;;5052324;28;20745;-73
2022/11/27 07:57:41;;;;;;;14.45;5.55;;;;;;;;;;5050835;28;20424;-73
2022/11/27 08:00:07;;;;;;;15.90;5.88;;;;;;;;;;5033140;28;20498;-73
2022/11/27 08:02:33;;;;;;;11.75;5.55;;;;;;;;;;5016390;28;20419;-73
2022/11/27 08:05:00;;;;;;;12.75;5.70;;;;;;;;;;5041980;28;20468;-75
2022/11/27 08:07:29;;;;;;;13.63;6.40;;;;;;;;;;5030926;28;20763;-75
2022/11/27 08:09:59;;;;;;;13.10;5.78;;;;;;;;;;5033310;28;20422;-75
2022/11/27 08:12:26;;;;;;;13.90;5.45;;;;;;;;;;5051635;28;20449;-75
2022/11/27 08:14:52;;;;;;;14.07;5.97;;;;;;;;;;5053692;28;20419;-76
2022/11/27 08:17:18;;;;;;;13.85;5.68;;;;;;;;;;5046939;28;20486;-76
2022/11/27 08:19:44;;;;;;;14.18;6.00;;;;;;;;;;5047391;28;20423;-76
2022/11/27 08:22:14;;;;;;;13.00;5.70;;;;;;;;;;5034501;28;21140;-76
2022/11/27 08:24:41;;;;;;;14.48;5.68;;;;;;;;;;5056413;28;20821;-75
2022/11/27 08:27:10;;;;;;;14.00;6.45;;;;;;;;;;5038147;28;20423;-75
2022/11/27 08:29:37;;;;;;;13.40;6.03;;;;;;;;;;5054354;28;20420;-74
2022/11/27 08:32:03;;;;;;;12.70;6.25;;;;;;;;;;5055152;28;20831;-75
2022/11/27 08:34:29;;;;;;;13.40;6.57;;;;;;;;;;5056132;28;20431;-75
2022/11/27 08:36:55;;;;;;;13.38;6.30;;;;;;;;;;5035759;28;20423;-74
2022/11/27 08:39:21;;;;;;;12.45;6.40;;;;;;;;;;5041085;28;20446;-75
2022/11/27 08:41:47;;;;;;;13.60;6.93;;;;;;;;;;5036005;28;20919;-75
2022/11/27 08:44:13;;;;;;;16.67;6.47;;;;;;;;;;5032878;28;20934;-75
2022/11/27 08:46:39;;;;;;;12.68;6.40;;;;;;;;;;5053486;28;20928;-75
2022/11/27 08:49:05;;;;;;;14.25;6.53;;;;;;;;;;5037066;28;20926;-75
2022/11/27 08:51:32;;;;;;;14.03;6.30;;;;;;;;;;5054553;28;20433;-74
2022/11/27 08:53:58;;;;;;;14.25;6.55;;;;;;;;;;5032980;28;20427;-76
2022/11/27 08:56:25;;;;;;;15.35;6.22;;;;;;;;;;5048982;28;20419;-76
2022/11/27 08:58:51;;;;;;;14.80;7.25;;;;;;;;;;5056002;28;20400;-75
2022/11/27 09:01:21;;;;;;;14.60;7.03;;;;;;;;;;5050815;28;20451;-75
2022/11/27 09:03:47;;;;;;;13.93;6.40;;;;;;;;;;5052349;28;20467;-75
2022/11/27 09:06:15;;;;;;;14.93;6.65;;;;;;;;;;5054769;28;20478;-76
2022/11/27 09:08:41;;;;;;;16.63;7.55;;;;;;;;;;5053908;28;20498;-75
2022/11/27 09:11:08;;;;;;;15.05;7.47;;;;;;;;;;5052121;28;20509;-75
2022/11/27 09:13:39;;;;;;;15.45;7.03;;;;;;;;;;5039381;28;20427;-77
2022/11/27 09:16:06;;;;;;;15.27;7.30;;;;;;;;;;5038134;28;20420;-76
2022/11/27 09:18:33;;;;;;;16.45;7.32;;;;;;;;;;5054188;28;20517;-76
2022/11/27 09:21:00;;;;;;;16.95;7.60;;;;;;;;;;5052939;28;20424;-75
2022/11/27 09:23:26;;;;;;;13.82;7.50;;;;;;;;;;5052446;28;20434;-75
2022/11/27 09:25:52;;;;;;;15.45;7.20;;;;;;;;;;5036487;28;20779;-74
2022/11/27 09:28:19;;;;;;;15.88;7.38;;;;;;;;;;5032741;28;20815;-75
2022/11/27 09:30:45;;;;;;;15.18;7.13;;;;;;;;;;5049056;28;20759;-74
2022/11/27 09:33:11;;;;;;;15.52;7.75;;;;;;;;;;5053073;28;20420;-74
2022/11/27 09:35:38;;;;;;;15.20;7.45;;;;;;;;;;5052704;28;20923;-75
2022/11/27 09:38:04;;;;;;;14.88;8.10;;;;;;;;;;5049170;28;20943;-75
2022/11/27 09:40:30;;;;;;;15.60;8.07;;;;;;;;;;5036815;28;20512;-75
2022/11/27 09:43:00;;;;;;;15.45;7.70;;;;;;;;;;5034541;28;20508;-76
2022/11/27 09:45:27;;;;;;;15.40;7.60;;;;;;;;;;5031090;28;20427;-76
2022/11/27 09:47:58;;;;;;;15.97;7.90;;;;;;;;;;5035190;28;20495;-76
2022/11/27 09:50:27;;;;;;;15.35;7.90;;;;;;;;;;5037166;28;20417;-75
2022/11/27 09:53:13;;;;;;;16.65;8.88;;;;;;;;;;5052476;28;20432;-75
2022/11/27 09:55:44;;;;;;;15.10;8.40;;;;;;;;;;5051619;28;20500;-76
2022/11/27 09:58:29;;;;;;;15.73;7.72;;;;;;;;;;5036925;28;20411;-76
2022/11/27 10:00:55;;;;;;;16.00;7.95;;;;;;;;;;5037529;28;20447;-75
2022/11/27 10:03:25;;;;;;;18.10;8.30;;;;;;;;;;5053587;28;20411;-75
2022/11/27 10:06:19;;;;;;;16.05;8.93;;;;;;;;;;5053032;28;20426;-75
2022/11/27 10:09:05;;;;;;;16.90;8.30;;;;;;;;;;5041275;28;20421;-76
2022/11/27 10:11:34;;;;;;;17.33;8.75;;;;;;;;;;5040683;28;20774;-76
2022/11/27 10:14:19;;;;;;;20.02;8.85;;;;;;;;;;5053505;28;20403;-75
2022/11/27 10:16:45;;;;;;;16.73;8.60;;;;;;;;;;5037409;28;20416;-75
2022/11/27 10:19:31;;;;;;;17.38;8.63;;;;;;;;;;5035777;28;20787;-76
2022/11/27 10:22:09;;;;;;;16.55;8.98;;;;;;;;;;5053677;28;20415;-75
2022/11/27 10:24:36;;;;;;;17.33;8.77;;;;;;;;;;5048181;28;20428;-76
2022/11/27 10:27:03;;;;;;;20.00;8.63;;;;;;;;;;5040144;28;20547;-76
2022/11/27 10:29:36;;;;;;;19.77;9.07;;;;;;;;;;5034044;28;20492;-75
2022/11/27 10:32:10;;;;;;;18.90;8.90;;;;;;;;;;5041954;28;20425;-75
2022/11/27 10:34:45;;;;;;;20.05;9.15;;;;;;;;;;5044958;28;20416;-75
2022/11/27 10:37:31;;;;;;;18.40;9.38;;;;;;;;;;5045239;28;20435;-75
2022/11/27 10:40:07;;;;;;;18.38;10.20;;;;;;;;;;5023502;28;21729;-75
2022/11/27 10:42:36;;;;;;;72.25;14.93;;;;;;;;;;5051376;28;20482;-75
2022/11/27 10:45:04;;;;;;;21.45;9.50;;;;;;;;;;5035479;28;20907;-75
2022/11/27 10:47:30;;;;;;;19.40;9.77;;;;;;;;;;5032929;28;20423;-75
2022/11/27 10:49:56;;;;;;;20.40;9.82;;;;;;;;;;5044441;28;20427;-74
2022/11/27 10:52:23;;;;;;;20.57;10.33;;;;;;;;;;5046338;28;20417;-74
2022/11/27 10:54:51;;;;;;;20.97;9.40;;;;;;;;;;5030761;28;20942;-74
2022/11/27 10:57:18;;;;;;;21.80;10.73;;;;;;;;;;5050251;28;20480;-75
2022/11/27 10:59:56;;;;;;;21.27;10.05;;;;;;;;;;5046877;28;20453;-75
2022/11/27 11:02:27;;;;;;;20.55;10.30;;;;;;;;;;5049754;28;20425;-75
2022/11/27 11:04:54;;;;;;;19.05;10.38;;;;;;;;;;5026452;28;20819;-74
2022/11/27 11:07:25;;;;;;;21.55;10.35;;;;;;;;;;5051387;28;20420;-76
2022/11/27 11:09:52;;;;;;;21.73;9.65;;;;;;;;;;5032487;28;20422;-76
2022/11/27 11:12:20;;;;;;;19.60;9.77;;;;;;;;;;5029105;28;20424;-76
2022/11/27 11:14:59;;;;;;;21.02;10.55;;;;;;;;;;5050196;28;20434;-75
2022/11/27 11:17:33;;;;;;;19.08;10.93;;;;;;;;;;5056375;28;20419;-75
2022/11/27 11:19:59;;;;;;;20.90;10.15;;;;;;;;;;5027496;28;20432;-75
2022/11/27 11:22:28;;;;;;;21.03;10.13;;;;;;;;;;5031309;28;20486;-76
2022/11/27 11:24:54;;;;;;;17.10;9.38;;;;;;;;;;5033536;28;20461;-75
2022/11/27 11:27:21;;;;;;;18.85;9.60;;;;;;;;;;5033098;28;20843;-75
2022/11/27 11:29:49;;;;;;;17.77;9.90;;;;;;;;;;5032159;28;20518;-75
2022/11/27 11:32:15;;;;;;;18.97;9.83;;;;;;;;;;5048646;28;20938;-75
2022/11/27 11:34:42;;;;;;;18.25;10.20;;;;;;;;;;5028686;28;20420;-75
2022/11/27 11:37:18;;;;;;;22.85;9.90;;;;;;;;;;5063457;28;20428;-76
2022/11/27 11:39:47;;;;;;;19.63;10.20;;;;;;;;;;5030657;28;20427;-75
2022/11/27 11:42:18;;;;;;;18.60;9.43;;;;;;;;;;5029711;28;20427;-76
2022/11/27 11:44:49;;;;;;;18.90;9.80;;;;;;;;;;5049054;28;20427;-75
2022/11/27 11:47:19;;;;;;;20.67;10.15;;;;;;;;;;5029451;28;20521;-75
2022/11/27 11:49:45;;;;;;;19.33;10.10;;;;;;;;;;5038308;28;20411;-76
2022/11/27 11:52:20;;;;;;;17.75;9.23;;;;;;;;;;5049905;28;20426;-75
2022/11/27 11:54:49;;;;;;;16.20;9.43;;;;;;;;;;5031163;28;20492;-75
2022/11/27 11:57:21;;;;;;;16.75;9.30;;;;;;;;;;5053643;28;20429;-75
2022/11/27 11:59:57;;;;;;;19.02;9.43;;;;;;;;;;5031433;28;20424;-74
2022/11/27 12:02:38;;;;;;;18.65;9.48;;;;;;;;;;5045490;28;20419;-74
2022/11/27 12:05:10;;;;;;;20.33;10.93;;;;;;;;;;5043695;28;20435;-74
2022/11/27 12:07:49;;;;;;;22.50;10.45;;;;;;;;;;5047961;28;20494;-75
2022/11/27 12:10:15;;;;;;;19.73;10.02;;;;;;;;;;5028436;28;20920;-75
2022/11/27 12:12:41;;;;;;;20.95;9.75;;;;;;;;;;5036317;28;20941;-76
2022/11/27 12:15:16;;;;;;;19.75;9.38;;;;;;;;;;5054561;28;20434;-76
2022/11/27 12:18:01;;;;;;;18.80;9.30;;;;;;;;;;5044913;28;20934;-76
2022/11/27 12:20:38;;;;;;;15.98;9.55;;;;;;;;;;5054388;28;20420;-75
2022/11/27 12:23:16;;;;;;;14.07;8.40;;;;;;;;;;5035857;28;20497;-75
2022/11/27 12:25:49;;;;;;;16.55;9.30;;;;;;;;;;5026675;28;21034;-75
2022/11/27 12:28:18;;;;;;;16.85;10.20;;;;;;;;;;5046480;28;20835;-76
2022/11/27 12:30:51;;;;;;;17.75;9.68;;;;;;;;;;5047550;28;20986;-76
2022/11/27 12:33:20;;;;;;;15.38;8.77;;;;;;;;;;5054604;28;20794;-75
2022/11/27 12:36:15;;;;;;;15.30;8.13;;;;;;;;;;5032300;28;21554;-75
2022/11/27 12:38:48;;;;;;;14.63;8.20;;;;;;;;;;5000030;28;20550;-75
2022/11/27 12:41:26;;;;;;;16.60;8.23;;;;;;;;;;5038117;28;20422;-76
2022/11/27 12:43:55;;;;;;;16.42;7.97;;;;;;;;;;5052975;28;20424;-76
2022/11/27 12:46:21;;;;;;;18.73;8.88;;;;;;;;;;5021479;28;20422;-75
2022/11/27 12:48:51;;;;;;;16.58;8.35;;;;;;;;;;5039443;28;21349;-75
2022/11/27 12:51:17;;;;;;;17.27;9.00;;;;;;;;;;5026684;28;20414;-74
2022/11/27 12:53:58;;;;;;;16.27;8.70;;;;;;;;;;5028528;28;20426;-75
2022/11/27 12:56:27;;;;;;;14.85;8.40;;;;;;;;;;5029245;28;20910;-75
2022/11/27 12:59:01;;;;;;;18.73;9.20;;;;;;;;;;5025633;28;20508;-75
2022/11/27 13:01:35;;;;;;;14.48;8.20;;;;;;;;;;5034393;28;20973;-75
2022/11/27 13:04:02;;;;;;;13.13;7.97;;;;;;;;;;5054728;28;20848;-75
2022/11/27 13:06:29;;;;;;;13.27;7.53;;;;;;;;;;5033105;28;20754;-75
2022/11/27 13:09:03;;;;;;;13.85;7.50;;;;;;;;;;5045217;28;20452;-74
2022/11/27 13:11:32;;;;;;;15.13;8.37;;;;;;;;;;5045375;28;20423;-74
2022/11/27 13:14:02;;;;;;;13.30;7.50;;;;;;;;;;5063944;28;20412;-74
2022/11/27 13:16:37;;;;;;;13.77;7.60;;;;;;;;;;5050929;28;20419;-76
2022/11/27 13:19:15;;;;;;;12.93;7.40;;;;;;;;;;5034773;28;20476;-76
2022/11/27 13:21:41;;;;;;;12.75;7.20;;;;;;;;;;5051509;28;20420;-75
2022/11/27 13:24:12;;;;;;;13.60;7.82;;;;;;;;;;5040022;28;20435;-76
2022/11/27 13:26:52;;;;;;;12.52;7.53;;;;;;;;;;5047607;28;20457;-75
2022/11/27 13:29:39;;;;;;;13.88;7.65;;;;;;;;;;5013667;28;20427;-75
2022/11/27 13:32:07;;;;;;;14.30;8.20;;;;;;;;;;4997786;28;20959;-75
2022/11/27 13:34:34;;;;;;;18.23;8.45;;;;;;;;;;5026503;28;20422;-75
2022/11/27 13:37:01;;;;;;;12.52;8.10;;;;;;;;;;5008828;28;20514;-75
2022/11/27 13:39:35;;;;;;;14.13;8.68;;;;;;;;;;5016747;28;20507;-75
2022/11/27 13:42:11;;;;;;;14.70;8.43;;;;;;;;;;5028947;28;20837;-75
2022/11/27 13:44:42;;;;;;;14.30;7.45;;;;;;;;;;5004762;28;20427;-75
2022/11/27 13:47:13;;;;;;;15.67;8.00;;;;;;;;;;5028012;28;21000;-75
2022/11/27 13:49:42;;;;;;;12.35;7.53;;;;;;;;;;5025915;28;20422;-75
2022/11/27 13:52:13;;;;;;;13.13;7.70;;;;;;;;;;5025011;28;20421;-76
2022/11/27 13:54:39;;;;;;;14.70;7.68;;;;;;;;;;5023335;28;20430;-75
2022/11/27 13:57:16;;;;;;;14.98;8.38;;;;;;;;;;4999063;28;20428;-75
2022/11/27 13:59:53;;;;;;;15.63;7.65;;;;;;;;;;5022483;28;20427;-76
2022/11/27 14:02:19;;;;;;;13.37;7.87;;;;;;;;;;5029252;28;20435;-76
2022/11/27 14:04:50;;;;;;;13.18;8.30;;;;;;;;;;5004153;28;20919;-76
2022/11/27 14:07:16;;;;;;;14.90;7.80;;;;;;;;;;5017999;28;20427;-75
2022/11/27 14:09:55;;;;;;;12.55;8.27;;;;;;;;;;4991703;28;20439;-75
2022/11/27 14:12:21;;;;;;;16.63;8.07;;;;;;;;;;4996388;28;20509;-75
2022/11/27 14:15:02;;;;;;;14.10;8.07;;;;;;;;;;5026216;28;20426;-76
2022/11/27 14:17:39;;;;;;;14.00;8.35;;;;;;;;;;5021275;28;20771;-75
2022/11/27 14:20:19;;;;;;;14.85;8.13;;;;;;;;;;5021983;28;20436;-75
2022/11/27 14:22:52;;;;;;;15.30;8.45;;;;;;;;;;5009858;28;20815;-75
2022/11/27 14:25:24;;;;;;;13.90;8.27;;;;;;;;;;5007093;28;20896;-74
2022/11/27 14:27:56;;;;;;;14.52;8.98;;;;;;;;;;5023851;28;20430;-74
2022/11/27 14:30:22;;;;;;;13.13;8.38;;;;;;;;;;5020891;28;20817;-73
2022/11/27 14:32:49;;;;;;;15.02;8.70;;;;;;;;;;5015063;28;20453;-75
2022/11/27 14:35:22;;;;;;;13.40;8.15;;;;;;;;;;5023344;28;20496;-73
2022/11/27 14:37:48;;;;;;;14.23;7.97;;;;;;;;;;5028183;28;20430;-73
2022/11/27 14:40:19;;;;;;;14.13;8.02;;;;;;;;;;5000922;28;20428;-73